createdAt,value
2022-11-20T00:05:18.619Z,99.30
2022-11-20T00:08:20.762Z,104.00
2022-11-20T00:14:25.529Z,95.60
2022-11-20T00:17:27.265Z,98.80
2022-11-20T00:20:28.857Z,103.10
2022-11-20T00:23:30.983Z,98.60
2022-11-20T00:29:34.330Z,90.50
2022-11-20T00:32:35.985Z,99.10
2022-11-20T00:35:37.583Z,99.00
2022-11-20T00:38:39.860Z,92.70
2022-11-20T00:41:41.536Z,95.80
2022-11-20T00:44:43.133Z,97.20
2022-11-20T00:47:44.719Z,74.00
2022-11-20T00:50:46.437Z,95.20
2022-11-20T00:53:48.962Z,88.30
2022-11-20T00:56:52.831Z,94.10
2022-11-20T00:59:54.712Z,94.80
2022-11-20T01:02:56.504Z,93.40
2022-11-20T01:06:03.674Z,94.30
2022-11-20T01:09:12.913Z,95.60
2022-11-20T01:12:14.590Z,87.50
2022-11-20T01:15:16.320Z,72.20
2022-11-20T01:18:17.949Z,91.70
2022-11-20T01:21:25.342Z,60.70
2022-11-20T01:24:27.044Z,86.80
2022-11-20T01:27:28.626Z,88.10
2022-11-20T01:30:30.281Z,87.30
2022-11-20T01:33:31.875Z,89.20
2022-11-20T01:36:35.940Z,83.00
2022-11-20T01:39:37.548Z,84.90
2022-11-20T01:43:03.057Z,83.70
2022-11-20T01:46:19.083Z,83.60
2022-11-20T01:49:27.296Z,86.90
2022-11-20T01:52:52.126Z,89.30
2022-11-20T01:55:57.354Z,87.60
2022-11-20T01:59:02.207Z,85.50
2022-11-20T02:02:03.895Z,85.80
2022-11-20T02:05:31.664Z,82.60
2022-11-20T02:08:34.300Z,81.60
2022-11-20T02:11:36.092Z,75.50
2022-11-20T02:14:37.803Z,74.20
2022-11-20T02:17:39.742Z,77.20
2022-11-20T02:20:44.490Z,76.10
2022-11-20T02:24:06.041Z,73.10
2022-11-20T02:27:11.163Z,75.10
2022-11-20T02:30:13.178Z,75.80
2022-11-20T02:33:14.874Z,72.70
2022-11-20T02:36:16.663Z,76.30
2022-11-20T02:39:20.258Z,73.70
2022-11-20T02:42:22.105Z,69.90
2022-11-20T02:45:25.123Z,65.60
2022-11-20T02:48:30.150Z,62.70
2022-11-20T02:51:34.333Z,62.00
2022-11-20T02:54:35.985Z,57.40
2022-11-20T02:57:37.633Z,59.90
2022-11-20T03:00:39.231Z,58.30
2022-11-20T03:03:40.887Z,54.40
2022-11-20T03:06:42.508Z,41.00
2022-11-20T03:09:44.206Z,49.10
2022-11-20T03:12:45.903Z,46.80
2022-11-20T03:15:47.580Z,45.10
2022-11-20T03:18:49.960Z,35.20
2022-11-20T03:21:51.581Z,46.40
2022-11-20T03:24:53.215Z,46.10
2022-11-20T03:27:54.961Z,42.20
2022-11-20T03:30:56.565Z,46.90
2022-11-20T03:33:59.230Z,46.90
2022-11-20T03:37:00.833Z,47.30
2022-11-20T03:40:02.822Z,47.80
2022-11-20T03:43:04.482Z,46.10
2022-11-20T03:46:07.026Z,45.60
2022-11-20T03:49:08.694Z,44.60
2022-11-20T03:52:10.294Z,45.60
2022-11-20T03:55:11.952Z,42.80
2022-11-20T03:58:14.093Z,44.90
2022-11-20T04:04:19.480Z,41.40
2022-11-20T04:07:21.421Z,43.00
2022-11-20T04:10:23.542Z,43.60
2022-11-20T04:16:30.182Z,42.40
2022-11-20T04:19:31.794Z,42.60
2022-11-20T04:22:33.365Z,39.80
2022-11-20T04:25:35.112Z,38.30
2022-11-20T04:28:37.812Z,38.20
2022-11-20T04:31:39.616Z,39.20
2022-11-20T04:34:41.241Z,36.10
2022-11-20T04:37:42.877Z,39.90
2022-11-20T04:40:44.560Z,42.10
2022-11-20T04:43:48.951Z,38.50
2022-11-20T04:46:50.574Z,40.90
2022-11-20T04:49:52.495Z,37.90
2022-11-20T04:52:54.129Z,40.40
2022-11-20T04:56:03.520Z,35.70
2022-11-20T04:59:05.157Z,40.40
2022-11-20T05:02:07.127Z,42.20
2022-11-20T05:05:08.828Z,41.60
2022-11-20T05:08:10.497Z,37.70
2022-11-20T05:11:14.549Z,41.40
2022-11-20T05:14:16.350Z,40.30
2022-11-20T05:17:18.077Z,40.60
2022-11-20T05:20:19.949Z,45.10
2022-11-20T05:23:21.617Z,45.60
2022-11-20T05:26:24.031Z,45.90
2022-11-20T05:29:25.697Z,42.60
2022-11-20T05:32:27.365Z,41.80
2022-11-20T05:35:29.060Z,41.50
2022-11-20T05:38:30.787Z,42.80
2022-11-20T05:41:33.738Z,40.50
2022-11-20T05:44:35.389Z,42.10
2022-11-20T05:47:37.089Z,42.50
2022-11-20T05:50:38.750Z,43.90
2022-11-20T05:53:46.733Z,44.20
2022-11-20T05:56:49.910Z,41.80
2022-11-20T05:59:51.629Z,33.10
2022-11-20T06:02:53.593Z,44.40
2022-11-20T06:08:59.172Z,31.00
2022-11-20T06:12:00.841Z,45.70
2022-11-20T06:15:03.294Z,46.30
2022-11-20T06:18:05.036Z,46.70
2022-11-20T06:21:09.236Z,43.80
2022-11-20T06:24:11.392Z,45.20
2022-11-20T06:27:13.090Z,43.30
2022-11-20T06:30:15.046Z,46.90
2022-11-20T06:33:16.729Z,46.50
2022-11-20T06:36:21.319Z,45.80
2022-11-20T06:39:23.107Z,46.90
2022-11-20T06:42:24.864Z,44.20
2022-11-20T06:45:26.490Z,46.00
2022-11-20T06:48:29.193Z,48.40
2022-11-20T06:51:30.832Z,51.40
2022-11-20T06:54:32.464Z,48.50
2022-11-20T06:57:34.451Z,49.80
2022-11-20T07:00:36.169Z,51.40
2022-11-20T07:03:38.235Z,54.00
2022-11-20T07:09:41.440Z,47.70
2022-11-20T07:12:43.091Z,49.40
2022-11-20T07:15:44.826Z,49.20
2022-11-20T07:18:50.421Z,57.30
2022-11-20T07:21:52.545Z,62.40
2022-11-20T07:24:54.237Z,48.50
2022-11-20T07:27:59.885Z,59.00
2022-11-20T07:31:02.409Z,58.80
2022-11-20T07:34:04.041Z,64.60
2022-11-20T07:37:10.175Z,62.30
2022-11-20T07:40:13.373Z,64.60
2022-11-20T07:43:15.017Z,69.40
2022-11-20T07:46:17.572Z,74.80
2022-11-20T07:49:19.434Z,75.50
2022-11-20T07:55:22.952Z,79.70
2022-11-20T07:58:24.591Z,80.70
2022-11-20T08:01:26.302Z,82.60
2022-11-20T08:04:27.936Z,60.90
2022-11-20T08:07:29.767Z,80.20
2022-11-20T08:10:31.392Z,80.80
2022-11-20T08:13:51.803Z,81.70
2022-11-20T08:16:53.919Z,75.10
2022-11-20T08:23:06.275Z,70.90
2022-11-20T08:26:07.975Z,80.90
2022-11-20T08:29:09.675Z,79.60
2022-11-20T08:32:11.331Z,77.70
2022-11-20T08:35:13.869Z,80.80
2022-11-20T08:38:15.653Z,93.50
2022-11-20T08:41:31.990Z,92.20
2022-11-20T08:44:33.937Z,88.50
2022-11-20T08:47:35.607Z,78.90
2022-11-20T08:50:37.271Z,80.10
2022-11-20T08:53:39.746Z,66.40
2022-11-20T08:56:41.509Z,58.80
2022-11-20T09:00:05.124Z,55.70
2022-11-20T09:03:05.055Z,50.30
2022-11-20T09:06:07.778Z,49.30
2022-11-20T09:09:09.505Z,49.70
2022-11-20T09:12:11.709Z,51.50
2022-11-20T09:15:13.482Z,54.20
2022-11-20T09:18:15.146Z,57.60
2022-11-20T09:21:17.125Z,57.80
2022-11-20T09:24:19.480Z,54.80
2022-11-20T09:27:21.950Z,56.90
2022-11-20T09:30:23.648Z,57.40
2022-11-20T09:33:25.471Z,59.50
2022-11-20T09:36:27.275Z,56.50
2022-11-20T09:39:29.135Z,54.00
2022-11-20T09:42:49.535Z,61.40
2022-11-20T09:46:03.201Z,63.30
2022-11-20T09:49:30.616Z,68.20
2022-11-20T09:53:19.968Z,73.20
2022-11-20T09:56:22.913Z,66.20
2022-11-20T09:59:41.838Z,68.30
2022-11-20T10:02:54.017Z,67.20
2022-11-20T10:05:58.356Z,69.60
2022-11-20T10:09:12.088Z,67.70
2022-11-20T10:12:19.523Z,63.40
2022-11-20T10:15:25.795Z,51.50
2022-11-20T10:18:42.577Z,42.40
2022-11-20T10:22:20.971Z,40.90
2022-11-20T10:25:30.509Z,39.50
2022-11-20T10:28:41.706Z,38.00
2022-11-20T10:31:51.517Z,39.40
2022-11-20T10:35:16.774Z,42.30
2022-11-20T10:38:43.494Z,38.10
2022-11-20T10:41:51.012Z,36.60
2022-11-20T10:45:06.020Z,37.20
2022-11-20T10:48:17.692Z,37.20
2022-11-20T10:51:57.642Z,38.00
2022-11-20T10:55:39.480Z,36.40
2022-11-20T10:58:54.917Z,38.30
2022-11-20T11:01:56.730Z,36.30
2022-11-20T11:05:07.253Z,36.60
2022-11-20T11:08:21.685Z,35.70
2022-11-20T11:11:28.076Z,35.70
2022-11-20T11:14:30.502Z,33.50
2022-11-20T11:17:34.335Z,24.60
2022-11-20T11:20:38.726Z,28.50
2022-11-20T11:23:42.928Z,28.80
2022-11-20T11:26:54.168Z,27.80
2022-11-20T11:30:13.443Z,26.00
2022-11-20T11:33:27.276Z,24.40
2022-11-20T11:36:28.975Z,25.90
2022-11-20T11:39:32.909Z,25.80
2022-11-20T11:42:34.561Z,28.30
2022-11-20T11:45:36.605Z,27.20
2022-11-20T11:48:38.341Z,25.10
2022-11-20T11:52:16.614Z,26.30
2022-11-20T11:55:31.030Z,24.60
2022-11-20T11:58:52.109Z,26.30
2022-11-20T12:01:59.965Z,25.70
2022-11-20T12:05:18.045Z,26.00
2022-11-20T12:08:38.908Z,27.10
2022-11-20T12:12:09.127Z,26.70
2022-11-20T12:15:13.360Z,28.90
2022-11-20T12:18:18.608Z,27.10
2022-11-20T12:21:23.218Z,28.50
2022-11-20T12:25:03.203Z,29.00
2022-11-20T12:28:16.634Z,28.40
2022-11-20T12:31:40.766Z,29.30
2022-11-20T12:35:19.315Z,27.80
2022-11-20T12:38:53.554Z,27.80
2022-11-20T12:42:19.503Z,27.90
2022-11-20T12:45:24.081Z,30.00
2022-11-20T12:48:37.240Z,32.30
2022-11-20T12:51:58.746Z,35.10
2022-11-20T12:55:27.120Z,32.20
2022-11-20T12:58:46.955Z,33.50
2022-11-20T13:01:54.305Z,33.50
2022-11-20T13:05:17.115Z,32.30
2022-11-20T13:08:24.355Z,31.70
2022-11-20T13:11:38.271Z,29.90
2022-11-20T13:14:42.851Z,31.80
2022-11-20T13:18:02.358Z,31.60
2022-11-20T13:21:14.512Z,31.10
2022-11-20T13:24:19.226Z,30.20
2022-11-20T13:27:23.519Z,30.10
2022-11-20T13:30:27.155Z,33.40
2022-11-20T13:33:37.483Z,31.60
2022-11-20T13:36:51.264Z,31.70
2022-11-20T13:39:52.968Z,30.80
2022-11-20T13:42:54.531Z,28.30
2022-11-20T13:46:01.484Z,29.80
2022-11-20T13:49:09.632Z,29.80
2022-11-20T13:52:32.493Z,28.60
2022-11-20T13:56:00.973Z,30.80
2022-11-20T13:59:47.906Z,33.20
2022-11-20T14:03:08.133Z,34.20
2022-11-20T14:06:25.314Z,33.80
2022-11-20T14:09:32.808Z,33.90
2022-11-20T14:12:34.620Z,33.90
2022-11-20T14:15:41.837Z,38.60
2022-11-20T14:18:46.334Z,35.30
2022-11-20T14:22:10.463Z,40.50
2022-11-20T14:25:12.091Z,37.80
2022-11-20T14:28:26.324Z,38.00
2022-11-20T14:31:28.573Z,38.80
2022-11-20T14:37:38.835Z,40.40
2022-11-20T14:40:42.562Z,45.50
2022-11-20T14:43:48.094Z,47.70
2022-11-20T14:46:51.696Z,47.80
2022-11-20T14:49:55.241Z,46.30
2022-11-20T14:52:59.378Z,45.10
2022-11-20T14:56:02.797Z,46.20
2022-11-20T14:59:04.804Z,42.20
2022-11-20T15:02:10.842Z,44.10
2022-11-20T15:05:13.697Z,41.40
2022-11-20T15:08:16.946Z,40.10
2022-11-20T15:11:23.622Z,40.70
2022-11-20T15:14:27.720Z,42.40
2022-11-20T15:17:31.730Z,40.40
2022-11-20T15:20:33.914Z,37.20
2022-11-20T15:26:40.418Z,31.20
2022-11-20T15:29:42.554Z,32.70
2022-11-20T15:32:45.338Z,30.40
2022-11-20T15:35:47.115Z,29.00
2022-11-20T15:38:49.027Z,26.90
2022-11-20T15:41:50.661Z,27.50
2022-11-20T15:44:52.387Z,28.10
2022-11-20T15:47:54.080Z,28.50
2022-11-20T15:51:04.459Z,21.20
2022-11-20T15:54:12.515Z,27.10
2022-11-20T15:57:14.439Z,28.70
2022-11-20T16:00:22.137Z,30.10
2022-11-20T16:03:57.259Z,28.80
2022-11-20T16:06:58.999Z,28.70
2022-11-20T16:10:00.787Z,29.60
2022-11-20T16:13:21.728Z,31.50
2022-11-20T16:16:28.976Z,29.60
2022-11-20T16:19:30.684Z,31.20
2022-11-20T16:22:32.305Z,23.40
2022-11-20T16:25:34.181Z,23.40
2022-11-20T16:28:35.871Z,30.00
2022-11-20T16:31:38.260Z,30.40
2022-11-20T16:34:40.517Z,28.70
2022-11-20T16:37:45.400Z,26.30
2022-11-20T16:40:47.036Z,25.00
2022-11-20T16:43:51.419Z,26.00
2022-11-20T16:46:53.038Z,27.00
2022-11-20T16:49:54.648Z,24.90
2022-11-20T16:52:56.443Z,24.40
2022-11-20T16:56:08.667Z,24.30
2022-11-20T16:59:10.271Z,23.80
2022-11-20T17:02:12.019Z,24.60
2022-11-20T17:05:13.701Z,25.80
2022-11-20T17:08:15.369Z,25.00
2022-11-20T17:11:21.939Z,23.90
2022-11-20T17:14:23.916Z,24.50
2022-11-20T17:17:25.789Z,24.80
2022-11-20T17:20:27.528Z,23.30
2022-11-20T17:23:30.448Z,24.50
2022-11-20T17:26:33.004Z,26.80
2022-11-20T17:29:39.216Z,27.50
2022-11-20T17:32:47.570Z,25.60
2022-11-20T17:35:56.041Z,20.60
2022-11-20T17:38:59.139Z,25.60
2022-11-20T17:42:19.514Z,26.50
2022-11-20T17:45:21.249Z,26.70
2022-11-20T17:48:26.962Z,18.50
2022-11-20T17:51:31.691Z,23.60
2022-11-20T17:54:33.405Z,21.70
2022-11-20T17:57:55.273Z,23.20
2022-11-20T18:01:04.755Z,23.60
2022-11-20T18:04:07.033Z,24.20
2022-11-20T18:10:10.420Z,24.00
2022-11-20T18:13:12.070Z,25.70
2022-11-20T18:16:13.842Z,28.20
2022-11-20T18:19:18.476Z,29.60
2022-11-20T18:22:20.227Z,30.80
2022-11-20T18:25:21.936Z,22.00
2022-11-20T18:28:23.703Z,25.90
2022-11-20T18:31:25.354Z,29.40
2022-11-20T18:34:27.589Z,31.80
2022-11-20T18:40:35.072Z,30.10
2022-11-20T18:43:55.360Z,31.50
2022-11-20T18:46:57.149Z,31.60
2022-11-20T18:50:00.546Z,30.80
2022-11-20T18:53:02.485Z,30.40
2022-11-20T18:56:05.390Z,29.50
2022-11-20T18:59:09.282Z,30.20
2022-11-20T19:02:13.072Z,30.60
2022-11-20T19:05:15.032Z,29.60
2022-11-20T19:08:16.653Z,30.30
2022-11-20T19:11:18.892Z,28.10
2022-11-20T19:17:23.548Z,25.90
2022-11-20T19:20:26.786Z,27.30
2022-11-20T19:23:29.091Z,28.40
2022-11-20T19:26:31.315Z,27.80
2022-11-20T19:29:33.072Z,28.40
2022-11-20T19:32:35.529Z,29.20
2022-11-20T19:35:37.187Z,29.00
2022-11-20T19:38:43.715Z,31.00
2022-11-20T19:41:50.482Z,28.10
2022-11-20T19:44:52.361Z,29.90
2022-11-20T19:48:07.160Z,26.60
2022-11-20T19:51:16.489Z,26.80
2022-11-20T19:54:18.211Z,27.20
2022-11-20T19:57:19.874Z,19.20
2022-11-20T20:00:27.948Z,25.60
2022-11-20T20:03:31.462Z,25.20
2022-11-20T20:06:35.312Z,27.10
2022-11-20T20:09:37.002Z,26.60
2022-11-20T20:12:38.796Z,28.10
2022-11-20T20:15:40.944Z,27.90
2022-11-20T20:21:44.713Z,26.50
2022-11-20T20:24:46.460Z,29.10
2022-11-20T20:27:48.184Z,32.20
2022-11-20T20:30:49.842Z,29.70
2022-11-20T20:33:52.274Z,29.00
2022-11-20T20:36:53.925Z,30.10
2022-11-20T20:39:55.624Z,30.90
2022-11-20T20:42:57.252Z,30.70
2022-11-20T20:45:58.899Z,34.30
2022-11-20T20:49:00.835Z,33.00
2022-11-20T20:52:07.650Z,30.00
2022-11-20T20:55:10.436Z,29.60
2022-11-20T20:58:12.349Z,30.50
2022-11-20T21:01:16.272Z,30.40
2022-11-20T21:04:17.982Z,31.60
2022-11-20T21:07:20.046Z,28.30
2022-11-20T21:10:23.833Z,30.30
2022-11-20T21:13:25.734Z,30.70
2022-11-20T21:16:40.121Z,33.00
2022-11-20T21:19:42.050Z,30.30
2022-11-20T21:22:43.827Z,30.80
2022-11-20T21:25:45.761Z,30.00
2022-11-20T21:28:49.094Z,32.00
2022-11-20T21:31:52.176Z,31.40
2022-11-20T21:34:53.789Z,31.90
2022-11-20T21:37:58.685Z,33.90
2022-11-20T21:41:01.107Z,36.00
2022-11-20T21:44:32.325Z,36.10
2022-11-20T21:47:25.185Z,34.20
2022-11-20T21:50:26.891Z,41.20
2022-11-20T21:53:28.976Z,48.40
2022-11-20T21:56:30.622Z,47.60
2022-11-20T21:59:32.505Z,42.50
2022-11-20T22:02:39.738Z,41.10
2022-11-20T22:05:42.341Z,45.20
2022-11-20T22:08:44.376Z,49.00
2022-11-20T22:11:46.962Z,48.30
2022-11-20T22:14:48.568Z,43.00
2022-11-20T22:18:08.595Z,34.20
2022-11-20T22:21:11.635Z,45.50
2022-11-20T22:24:16.393Z,41.70
2022-11-20T22:27:18.131Z,38.10
2022-11-20T22:30:19.835Z,38.70
2022-11-20T22:33:21.452Z,42.40
2022-11-20T22:36:27.761Z,39.20
2022-11-20T22:39:29.351Z,38.40
2022-11-20T22:42:30.996Z,35.40
2022-11-20T22:45:32.653Z,31.40
2022-11-20T22:48:36.322Z,32.30
2022-11-20T22:51:40.275Z,32.50
2022-11-20T22:54:41.961Z,30.60
2022-11-20T22:57:43.615Z,31.30
2022-11-20T23:00:45.237Z,27.80
2022-11-20T23:03:48.972Z,28.30
2022-11-20T23:06:50.650Z,28.00
2022-11-20T23:09:52.214Z,30.60
2022-11-20T23:12:54.052Z,31.30
2022-11-20T23:16:11.021Z,32.00
2022-11-20T23:19:14.083Z,33.50
2022-11-20T23:22:15.747Z,32.20
2022-11-20T23:25:17.433Z,33.80
2022-11-20T23:28:19.086Z,23.90
2022-11-20T23:31:21.257Z,32.00
2022-11-20T23:37:24.518Z,30.50
2022-11-20T23:40:26.157Z,22.70
2022-11-20T23:43:27.926Z,24.70
2022-11-20T23:46:29.604Z,31.70
2022-11-20T23:49:31.231Z,34.50
2022-11-20T23:52:32.886Z,30.80
2022-11-20T23:55:34.644Z,31.40
2022-11-20T23:58:38.159Z,31.50
